Time;durP1;ratioP1;P1;durP2;ratioP2;P2;SDS_P1;SDS_P2;PMS_P1;PMS_P2;Temp;Humidity;BMP_temperature;BMP_pressure;BME280_temperature;BME280_humidity;BME280_pressure;Samples;Min_cycle;Max_cycle;Signal;HPM_P1;HPM_P2
2021/09/07 00:01:55;;;;;;;13.32;3.95;;;;;;;24.55;57.41;100927.31;5030173;28;20037;-78
2021/09/07 00:04:31;;;;;;;13.60;4.57;;;;;;;24.56;57.32;100921.00;5029933;28;20073;-77
2021/09/07 00:07:00;;;;;;;17.50;5.03;;;;;;;24.55;57.32;100921.91;5030423;28;20037;-77
2021/09/07 00:09:28;;;;;;;18.50;4.35;;;;;;;24.53;57.18;100923.81;5030336;28;20043;-76
2021/09/07 00:11:55;;;;;;;10.65;4.72;;;;;;;24.53;57.00;100923.81;5030668;28;20049;-76
2021/09/07 00:14:23;;;;;;;20.02;5.18;;;;;;;24.53;57.28;100926.53;5023705;28;20475;-75
2021/09/07 00:16:50;;;;;;;14.13;4.85;;;;;;;24.49;57.17;100918.59;5041800;28;20091;-74
2021/09/07 00:19:18;;;;;;;16.38;5.18;;;;;;;24.50;57.14;100917.66;5027012;28;20112;-77
2021/09/07 00:21:45;;;;;;;12.18;3.72;;;;;;;24.49;57.30;100919.47;5033896;28;20042;-77
2021/09/07 00:24:15;;;;;;;13.60;4.05;;;;;;;24.49;57.34;100921.28;5030428;28;20501;-75
2021/09/07 00:26:43;;;;;;;14.02;4.47;;;;;;;24.47;57.20;100912.38;5003894;28;20469;-77
2021/09/07 00:29:10;;;;;;;17.23;3.78;;;;;;;24.45;57.10;100915.13;5030406;28;20073;-75
2021/09/07 00:31:37;;;;;;;18.33;4.72;;;;;;;24.45;57.25;100912.44;5030585;28;20040;-76
2021/09/07 00:34:05;;;;;;;18.02;4.10;;;;;;;24.47;57.00;100913.28;5029870;28;20050;-77
2021/09/07 00:36:32;;;;;;;13.73;4.15;;;;;;;24.43;57.15;100906.22;5020960;28;20042;-77
2021/09/07 00:38:59;;;;;;;16.55;4.15;;;;;;;24.44;57.39;100907.09;5035070;28;20057;-76
2021/09/07 00:41:37;;;;;;;12.50;3.85;;;;;;;24.46;57.03;100910.63;5029935;28;20054;-77
2021/09/07 00:44:13;;;;;;;18.98;4.45;;;;;;;24.45;57.19;100907.03;5029945;28;20038;-75
2021/09/07 00:46:40;;;;;;;14.25;4.47;;;;;;;24.43;57.39;100906.22;5030181;28;20072;-77
2021/09/07 00:49:08;;;;;;;19.33;5.50;;;;;;;24.44;57.30;100902.56;5029773;28;20048;-76
2021/09/07 00:51:36;;;;;;;15.25;4.47;;;;;;;24.44;57.21;100904.41;5028740;28;20409;-76
2021/09/07 00:54:04;;;;;;;19.60;4.50;;;;;;;24.40;57.37;100905.47;5029744;28;20046;-77
2021/09/07 00:56:36;;;;;;;15.13;4.85;;;;;;;24.42;57.32;100914.38;5029455;28;20425;-76
2021/09/07 00:59:06;;;;;;;15.30;4.82;;;;;;;24.40;57.17;100908.16;5020058;28;20044;-74
2021/09/07 01:01:33;;;;;;;16.23;4.07;;;;;;;24.37;57.35;100909.16;5044215;28;20406;-76
2021/09/07 01:04:01;;;;;;;15.30;4.07;;;;;;;24.36;57.66;100907.38;5029271;28;20034;-76
2021/09/07 01:06:30;;;;;;;13.45;4.00;;;;;;;24.34;57.79;100906.59;5029473;28;20049;-76
2021/09/07 01:09:00;;;;;;;16.65;5.30;;;;;;;24.35;57.82;100902.94;5029450;28;20122;-77
2021/09/07 01:11:28;;;;;;;17.13;5.28;;;;;;;24.33;58.15;100903.94;5028959;28;20034;-76
2021/09/07 01:13:56;;;;;;;15.15;4.10;;;;;;;24.32;58.46;100903.06;5030233;28;20511;-76
2021/09/07 01:16:24;;;;;;;19.20;5.18;;;;;;;24.33;58.43;100898.53;5031024;28;20037;-76
2021/09/07 01:18:52;;;;;;;17.80;4.35;;;;;;;24.32;58.55;100894.97;5033492;28;20041;-76
2021/09/07 01:21:19;;;;;;;16.85;4.38;;;;;;;24.27;58.49;100896.97;5034000;28;20071;-75
2021/09/07 01:23:49;;;;;;;18.88;4.55;;;;;;;24.30;58.67;100894.13;5033924;28;20064;-77
2021/09/07 01:26:36;;;;;;;19.38;4.80;;;;;;;24.30;58.68;100891.44;5030984;28;20048;-76
2021/09/07 01:29:06;;;;;;;14.20;4.43;;;;;;;24.33;58.58;100891.34;5031634;28;20040;-77
2021/09/07 01:31:34;;;;;;;18.92;4.55;;;;;;;24.32;58.81;100892.25;5032132;28;20038;-76
2021/09/07 01:34:01;;;;;;;18.15;4.22;;;;;;;24.29;59.00;100897.78;5032802;28;20034;-76
2021/09/07 01:36:29;;;;;;;15.05;4.13;;;;;;;24.28;58.94;100890.66;5032576;28;20060;-75
2021/09/07 01:38:56;;;;;;;13.20;3.58;;;;;;;24.29;58.74;100892.38;5032012;28;20048;-76
2021/09/07 01:41:25;;;;;;;16.00;4.30;;;;;;;24.33;58.67;100887.75;5032508;28;20037;-76
2021/09/07 01:43:53;;;;;;;13.55;3.80;;;;;;;24.36;58.83;100895.72;5025132;28;20072;-76
2021/09/07 01:46:21;;;;;;;15.05;3.75;;;;;;;24.35;59.06;100893.97;5032104;28;20042;-74
2021/09/07 01:48:48;;;;;;;12.82;4.40;;;;;;;24.35;59.15;100893.97;5033481;28;20053;-76
2021/09/07 01:51:34;;;;;;;19.70;6.18;;;;;;;24.34;59.15;100894.91;5029676;28;20203;-77
2021/09/07 01:54:21;;;;;;;18.90;5.03;;;;;;;24.32;59.61;100888.69;5031514;28;20452;-76
2021/09/07 01:56:48;;;;;;;14.88;4.07;;;;;;;24.31;59.79;100887.81;5033216;28;20444;-77
2021/09/07 01:59:18;;;;;;;20.25;5.45;;;;;;;24.29;59.91;100883.41;5033069;28;20496;-77
2021/09/07 02:01:45;;;;;;;15.90;4.63;;;;;;;24.27;60.19;100888.00;5027565;28;20036;-76
2021/09/07 02:04:13;;;;;;;21.80;5.00;;;;;;;24.30;59.94;100895.94;5041200;28;20042;-76
2021/09/07 02:06:40;;;;;;;19.50;4.70;;;;;;;24.33;59.96;100896.72;5031098;28;20779;-76
2021/09/07 02:09:08;;;;;;;22.63;5.15;;;;;;;24.36;60.25;100895.72;5031053;28;20052;-75
2021/09/07 02:11:36;;;;;;;14.95;4.75;;;;;;;24.40;60.17;100892.84;5030897;28;20049;-76
2021/09/07 02:14:03;;;;;;;21.83;4.25;;;;;;;24.43;59.90;100891.84;5028154;28;20493;-76
2021/09/07 02:16:32;;;;;;;17.80;4.82;;;;;;;24.45;60.52;100888.16;5032236;28;20037;-76
2021/09/07 02:18:59;;;;;;;16.77;4.72;;;;;;;24.44;60.53;100891.78;5031074;28;20057;-76
2021/09/07 02:21:26;;;;;;;18.80;4.40;;;;;;;24.45;60.33;100896.25;5032826;28;20045;-76
2021/09/07 02:24:13;;;;;;;15.13;4.45;;;;;;;24.45;60.84;100896.25;5026244;28;20389;-76
2021/09/07 02:26:59;;;;;;;19.63;5.10;;;;;;;24.45;61.17;100896.25;5037810;28;20048;-76
2021/09/07 02:29:33;;;;;;;15.00;4.70;;;;;;;24.48;61.06;100911.44;5031591;28;20115;-74
2021/09/07 02:32:04;;;;;;;20.30;4.90;;;;;;;24.48;61.05;100903.34;5031662;28;20068;-76
2021/09/07 02:34:32;;;;;;;14.55;4.28;;;;;;;24.46;60.97;100903.41;5032179;28;20045;-76
2021/09/07 02:36:59;;;;;;;18.95;5.50;;;;;;;24.43;60.99;100905.31;5032093;28;20064;-76
2021/09/07 02:39:27;;;;;;;15.60;6.05;;;;;;;24.43;61.21;100902.63;5031823;28;20508;-75
2021/09/07 02:41:54;;;;;;;17.88;4.80;;;;;;;24.42;61.23;100893.66;5031746;28;20025;-75
2021/09/07 02:44:22;;;;;;;20.90;5.13;;;;;;;24.41;61.19;100905.41;5032414;28;20492;-75
2021/09/07 02:46:50;;;;;;;27.17;5.45;;;;;;;24.39;61.26;100903.69;5030777;28;20056;-75
2021/09/07 02:49:19;;;;;;;11.70;4.60;;;;;;;24.39;61.46;100899.19;5028626;28;20050;-75
2021/09/07 02:51:47;;;;;;;18.35;4.78;;;;;;;24.38;61.19;100901.94;5015011;28;20037;-75
2021/09/07 02:54:15;;;;;;;17.85;4.97;;;;;;;24.39;61.35;100909.97;5031385;28;20459;-75
2021/09/07 02:56:43;;;;;;;16.90;4.10;;;;;;;24.38;60.97;100908.22;5033102;28;20048;-76
2021/09/07 02:59:10;;;;;;;14.88;4.88;;;;;;;24.38;61.20;100912.72;5032498;28;20037;-75
2021/09/07 03:01:37;;;;;;;19.60;4.75;;;;;;;24.35;61.22;100919.13;5030777;28;20048;-76
2021/09/07 03:04:05;;;;;;;20.30;5.20;;;;;;;24.35;61.49;100916.41;5030785;28;20045;-76
2021/09/07 03:06:34;;;;;;;17.98;4.82;;;;;;;24.33;61.29;100915.63;5030577;28;20040;-76
2021/09/07 03:09:01;;;;;;;16.90;4.60;;;;;;;24.30;61.29;100912.16;5030439;28;20038;-76
2021/09/07 03:11:47;;;;;;;14.70;4.28;;;;;;;24.29;61.38;100913.06;5029584;28;20134;-77
2021/09/07 03:14:14;;;;;;;18.48;4.35;;;;;;;24.32;61.49;100916.56;5029499;28;20050;-77
2021/09/07 03:17:00;;;;;;;22.20;5.78;;;;;;;24.33;61.37;100921.03;5028725;28;20048;-76
2021/09/07 03:19:28;;;;;;;20.67;4.88;;;;;;;24.35;61.44;100920.97;5031048;28;20049;-76
2021/09/07 03:21:57;;;;;;;20.67;5.75;;;;;;;24.35;61.80;100935.31;5036008;28;20088;-75
2021/09/07 03:24:25;;;;;;;20.08;5.63;;;;;;;24.36;61.53;100918.19;5031425;28;20041;-76
2021/09/07 03:27:11;;;;;;;19.80;4.80;;;;;;;24.35;61.69;100929.91;5031308;28;20409;-76
2021/09/07 03:29:45;;;;;;;21.95;5.03;;;;;;;24.35;61.64;100931.75;5030294;28;20045;-76
2021/09/07 03:32:13;;;;;;;21.02;5.80;;;;;;;24.35;61.63;100934.47;5031222;28;20045;-76
2021/09/07 03:34:40;;;;;;;13.77;4.88;;;;;;;24.32;61.67;100924.66;5032417;28;20590;-76
2021/09/07 03:37:10;;;;;;;23.13;5.10;;;;;;;24.30;61.65;100926.53;5028727;28;20397;-76
2021/09/07 03:39:38;;;;;;;17.13;4.57;;;;;;;24.30;61.67;100926.53;5030491;28;20033;-76
2021/09/07 03:42:05;;;;;;;17.27;5.55;;;;;;;24.26;61.92;100927.59;5021852;28;20042;-76
2021/09/07 03:44:32;;;;;;;17.17;4.93;;;;;;;24.27;61.87;100929.34;5030415;28;20040;-76
2021/09/07 03:47:00;;;;;;;19.83;5.22;;;;;;;24.28;62.00;100933.81;5034824;28;20505;-76
2021/09/07 03:49:27;;;;;;;17.52;5.45;;;;;;;24.29;61.46;100932.84;5030904;28;20501;-76
2021/09/07 03:51:55;;;;;;;17.10;4.70;;;;;;;24.31;61.45;100932.81;5030033;28;20038;-76
2021/09/07 03:54:24;;;;;;;12.55;4.63;;;;;;;24.31;61.20;100922.00;5031032;28;20053;-70
2021/09/07 03:56:51;;;;;;;16.35;4.90;;;;;;;24.29;60.97;100931.97;5003817;28;20486;-69
2021/09/07 03:59:20;;;;;;;15.90;4.25;;;;;;;24.30;61.10;100941.81;5031040;28;20435;-75
2021/09/07 04:01:47;;;;;;;18.25;5.53;;;;;;;24.31;61.06;100941.78;5030642;28;20489;-76
2021/09/07 04:04:16;;;;;;;20.77;5.53;;;;;;;24.33;61.17;100942.63;5030937;28;20045;-76
2021/09/07 04:06:44;;;;;;;18.73;4.55;;;;;;;24.34;61.05;100944.38;5030556;28;20037;-76
2021/09/07 04:09:38;;;;;;;16.83;4.95;;;;;;;24.37;61.11;100949.63;5028855;28;20099;-76
2021/09/07 04:12:07;;;;;;;17.30;5.60;;;;;;;24.39;61.31;100953.16;5028720;28;20065;-75
2021/09/07 04:14:34;;;;;;;19.90;5.45;;;;;;;24.42;61.45;100954.84;5030709;28;20045;-75
2021/09/07 04:17:04;;;;;;;13.05;4.85;;;;;;;24.42;61.33;100963.84;5030515;28;20041;-75
2021/09/07 04:19:37;;;;;;;24.45;5.70;;;;;;;24.42;61.78;100960.25;5030877;28;20037;-75
2021/09/07 04:22:23;;;;;;;24.73;5.55;;;;;;;24.45;61.86;100962.84;5029022;28;20044;-75
2021/09/07 04:24:52;;;;;;;21.15;5.15;;;;;;;24.51;61.71;100963.50;5030501;28;20033;-76
2021/09/07 04:27:19;;;;;;;16.20;4.53;;;;;;;24.50;61.85;100961.72;5030424;28;20050;-76
2021/09/07 04:29:54;;;;;;;17.40;4.45;;;;;;;24.55;61.68;100975.03;5030424;28;20048;-76
2021/09/07 04:32:22;;;;;;;15.15;4.40;;;;;;;24.57;61.64;100971.34;5029598;28;20046;-76
2021/09/07 04:34:49;;;;;;;19.33;5.28;;;;;;;24.59;61.74;100982.97;5030252;28;20046;-76
2021/09/07 04:37:19;;;;;;;15.68;5.00;;;;;;;24.61;61.85;100972.97;5007999;28;20049;-76
2021/09/07 04:39:50;;;;;;;15.45;4.32;;;;;;;24.66;61.95;100977.34;5031173;28;20029;-76
2021/09/07 04:42:30;;;;;;;23.77;4.85;;;;;;;24.71;61.79;100975.34;5029713;28;20037;-76
2021/09/07 04:44:58;;;;;;;26.42;5.22;;;;;;;24.76;61.58;100989.53;5030424;28;20044;-77
2021/09/07 04:47:25;;;;;;;20.58;4.72;;;;;;;24.78;61.36;100987.66;5030245;28;20493;-76
2021/09/07 04:49:52;;;;;;;16.17;4.57;;;;;;;24.82;61.56;100994.69;5030144;28;20038;-74
2021/09/07 04:52:20;;;;;;;18.63;4.70;;;;;;;24.83;61.21;100994.63;5023912;28;20045;-76
2021/09/07 04:54:47;;;;;;;18.77;5.38;;;;;;;24.81;61.13;100995.66;5046048;28;20038;-77
2021/09/07 04:57:14;;;;;;;22.65;5.60;;;;;;;24.82;61.14;101000.09;5033467;28;20049;-76
2021/09/07 04:59:43;;;;;;;22.45;4.60;;;;;;;24.88;61.10;101005.25;5032014;28;20507;-76
2021/09/07 05:02:11;;;;;;;19.65;4.60;;;;;;;24.90;61.11;101007.00;5032249;28;20041;-77
2021/09/07 05:04:38;;;;;;;17.42;4.65;;;;;;;24.91;61.25;101005.16;5031417;28;20034;-76
2021/09/07 05:07:06;;;;;;;18.95;5.32;;;;;;;24.90;60.53;101008.81;5031793;28;20512;-76
2021/09/07 05:09:33;;;;;;;20.05;5.07;;;;;;;24.86;60.37;101008.03;5024396;28;20041;-76
2021/09/07 05:12:00;;;;;;;17.45;4.60;;;;;;;24.87;60.21;101019.72;5012096;28;20045;-76
2021/09/07 05:14:28;;;;;;;20.80;5.28;;;;;;;24.87;59.99;101012.50;5012101;28;20049;-77
2021/09/07 05:16:56;;;;;;;16.17;4.82;;;;;;;24.91;59.74;101014.16;5012372;28;20715;-76
2021/09/07 05:19:24;;;;;;;21.20;4.65;;;;;;;25.00;59.90;101018.31;5011087;28;20037;-77
2021/09/07 05:21:51;;;;;;;18.45;5.53;;;;;;;25.05;59.67;101024.41;5012197;28;20041;-77
2021/09/07 05:24:19;;;;;;;16.58;5.13;;;;;;;25.04;60.07;101019.06;5012762;28;20041;-76
2021/09/07 05:26:46;;;;;;;14.90;5.00;;;;;;;25.03;60.22;101023.59;5013409;28;20042;-76
2021/09/07 05:29:15;;;;;;;25.92;5.22;;;;;;;25.09;59.93;101026.03;5013808;28;20045;-76
2021/09/07 05:31:42;;;;;;;16.83;4.80;;;;;;;25.16;59.94;101026.69;5013497;28;20072;-77
2021/09/07 05:34:12;;;;;;;16.90;4.50;;;;;;;25.22;59.63;101021.03;5011899;28;20050;-75
2021/09/07 05:36:39;;;;;;;19.60;5.07;;;;;;;25.20;59.30;101023.81;5012556;28;20042;-77
2021/09/07 05:39:06;;;;;;;26.88;5.93;;;;;;;25.25;59.31;101032.59;5011632;28;20034;-76
2021/09/07 05:41:36;;;;;;;11.43;4.53;;;;;;;25.30;59.29;101036.00;5009141;28;20045;-76
2021/09/07 05:44:04;;;;;;;18.80;5.28;;;;;;;25.34;59.07;101042.13;5012925;28;20048;-76
2021/09/07 05:46:32;;;;;;;17.15;4.63;;;;;;;25.35;59.22;101028.56;5009915;28;20045;-76
2021/09/07 05:48:59;;;;;;;13.93;3.97;;;;;;;25.35;59.48;101033.97;5013130;28;20575;-77
2021/09/07 05:51:30;;;;;;;20.98;5.13;;;;;;;25.39;59.21;101038.34;5012419;28;20581;-75
2021/09/07 05:53:57;;;;;;;18.95;4.90;;;;;;;25.44;59.31;101042.66;5012048;28;20038;-77
2021/09/07 05:56:25;;;;;;;19.23;5.20;;;;;;;25.45;59.08;101037.19;5018455;28;20040;-76
2021/09/07 05:58:52;;;;;;;16.63;4.82;;;;;;;25.43;59.23;101041.78;5032726;28;20040;-76
2021/09/07 06:01:20;;;;;;;14.48;4.38;;;;;;;25.47;59.17;101042.53;5031959;28;20045;-75
2021/09/07 06:03:47;;;;;;;15.90;4.30;;;;;;;25.52;58.81;101037.81;5032354;28;20525;-77
2021/09/07 06:06:15;;;;;;;16.65;5.03;;;;;;;25.68;58.84;101042.53;5033170;28;20053;-76
2021/09/07 06:08:50;;;;;;;16.08;4.72;;;;;;;25.74;58.30;101044.97;5030262;28;20060;-76
2021/09/07 06:11:17;;;;;;;18.05;4.15;;;;;;;25.84;58.45;101044.59;5031014;28;20048;-77
2021/09/07 06:13:44;;;;;;;13.60;4.32;;;;;;;26.19;57.92;101049.34;5032194;28;20100;-77
2021/09/07 06:16:12;;;;;;;21.33;4.43;;;;;;;26.49;57.36;101042.59;5032168;28;20042;-77
2021/09/07 06:18:58;;;;;;;16.70;4.93;;;;;;;26.68;56.90;101058.00;5020495;28;20053;-76
2021/09/07 06:21:26;;;;;;;13.13;3.63;;;;;;;26.63;56.74;101047.38;5032079;28;20044;-76
2021/09/07 06:23:55;;;;;;;12.85;4.50;;;;;;;26.48;56.59;101054.38;5031648;28;20044;-77
2021/09/07 06:26:23;;;;;;;18.73;4.93;;;;;;;26.44;56.53;101057.28;5030289;28;20037;-77
2021/09/07 06:28:51;;;;;;;15.05;4.70;;;;;;;26.49;56.40;101060.66;5033395;28;20416;-77
2021/09/07 06:31:18;;;;;;;14.07;4.00;;;;;;;27.05;55.53;101055.31;5030912;28;20034;-76
2021/09/07 06:33:52;;;;;;;15.25;3.97;;;;;;;27.32;54.35;101061.25;5032108;28;20150;-78
2021/09/07 06:36:35;;;;;;;16.20;4.35;;;;;;;27.27;53.74;101057.88;5029578;28;20041;-76
2021/09/07 06:39:04;;;;;;;14.57;4.28;;;;;;;27.25;53.43;101065.22;5029127;28;20040;-76
2021/09/07 06:41:31;;;;;;;14.27;4.50;;;;;;;27.20;53.92;101065.44;5029929;28;20041;-76
2021/09/07 06:43:59;;;;;;;17.15;4.28;;;;;;;27.18;53.74;101064.63;5022080;28;20037;-78
2021/09/07 06:46:45;;;;;;;14.57;3.75;;;;;;;27.18;53.89;101069.16;5026766;28;20067;-78
2021/09/07 06:49:14;;;;;;;20.55;4.38;;;;;;;27.40;53.50;101072.59;5030598;28;20048;-76
2021/09/07 06:51:41;;;;;;;13.25;3.83;;;;;;;27.52;52.58;101073.84;5030187;28;20038;-77
2021/09/07 06:54:10;;;;;;;17.67;3.90;;;;;;;27.76;51.90;101080.78;5029875;28;20042;-77
2021/09/07 06:56:37;;;;;;;17.75;4.35;;;;;;;27.83;51.65;101073.22;5029886;28;20041;-77
2021/09/07 06:59:05;;;;;;;12.25;3.83;;;;;;;27.71;51.77;101075.56;5031573;28;20052;-77
2021/09/07 07:01:46;;;;;;;16.17;4.00;;;;;;;27.60;51.96;101077.97;5029064;28;20604;-77
2021/09/07 07:04:14;;;;;;;12.27;4.10;;;;;;;27.58;52.27;101090.72;5030161;28;20041;-75
2021/09/07 07:06:41;;;;;;;23.20;4.63;;;;;;;27.52;52.35;101080.16;5029443;28;20069;-77
2021/09/07 07:09:10;;;;;;;15.25;3.83;;;;;;;27.50;52.12;101078.47;5030918;28;20045;-77
2021/09/07 07:11:37;;;;;;;14.45;4.63;;;;;;;27.49;52.25;101080.31;5030623;28;20043;-77
2021/09/07 07:14:23;;;;;;;15.60;5.05;;;;;;;27.53;52.07;101091.91;5028311;28;20704;-75
2021/09/07 07:16:50;;;;;;;16.45;4.40;;;;;;;27.54;52.29;101097.25;5003045;28;20052;-78
2021/09/07 07:19:36;;;;;;;17.20;4.53;;;;;;;27.56;52.62;101092.66;5028688;28;20075;-77
2021/09/07 07:22:04;;;;;;;18.20;5.20;;;;;;;27.59;52.67;101091.59;5029174;28;20045;-77
2021/09/07 07:24:33;;;;;;;17.63;3.72;;;;;;;27.68;52.44;101086.59;5029185;28;20432;-76
2021/09/07 07:27:01;;;;;;;13.75;4.53;;;;;;;28.36;51.88;101094.88;5029059;28;20042;-77
2021/09/07 07:29:29;;;;;;;16.95;4.80;;;;;;;28.53;51.34;101103.03;5018564;28;20042;-77
2021/09/07 07:31:56;;;;;;;16.40;3.92;;;;;;;28.70;51.00;101111.13;5021109;28;20033;-77
2021/09/07 07:34:24;;;;;;;12.82;4.10;;;;;;;28.72;51.11;101098.34;5031274;28;20482;-77
2021/09/07 07:36:54;;;;;;;11.38;3.67;;;;;;;29.27;50.36;101100.78;5030988;28;20029;-78
2021/09/07 07:39:22;;;;;;;13.07;3.60;;;;;;;29.43;49.74;101107.13;5031084;28;20048;-78
2021/09/07 07:41:51;;;;;;;13.95;3.35;;;;;;;29.46;49.76;101103.34;5030925;28;20041;-78
2021/09/07 07:44:37;;;;;;;10.93;3.50;;;;;;;29.33;49.34;101111.31;4976850;28;20056;-78
2021/09/07 07:47:06;;;;;;;15.43;3.58;;;;;;;29.16;49.50;101106.78;5030618;28;20581;-76
2021/09/07 07:49:33;;;;;;;12.52;3.78;;;;;;;29.23;49.14;101100.06;5031111;28;20421;-78
2021/09/07 07:52:19;;;;;;;12.18;3.85;;;;;;;29.24;48.65;101103.66;5029570;28;20187;-77
2021/09/07 07:54:50;;;;;;;12.35;4.07;;;;;;;28.98;48.75;101115.09;5031464;28;20044;-78
2021/09/07 07:57:19;;;;;;;13.45;4.22;;;;;;;29.06;48.74;101112.84;5030430;28;20064;-78
2021/09/07 07:59:46;;;;;;;13.55;3.55;;;;;;;29.36;48.33;101104.81;5031161;28;20517;-77
2021/09/07 08:02:32;;;;;;;14.82;4.07;;;;;;;29.32;48.10;101104.97;5029926;28;20049;-77
2021/09/07 08:05:12;;;;;;;15.98;4.30;;;;;;;29.27;48.35;101119.81;5002313;28;20045;-78
2021/09/07 08:07:40;;;;;;;10.80;3.20;;;;;;;29.60;47.61;101111.59;5029333;28;20037;-76
2021/09/07 08:10:08;;;;;;;12.65;3.53;;;;;;;29.51;47.27;101120.28;5029324;28;20288;-78
2021/09/07 08:12:37;;;;;;;15.70;4.13;;;;;;;29.38;47.39;101120.09;5028886;28;20042;-76
2021/09/07 08:15:06;;;;;;;12.00;3.28;;;;;;;29.25;47.59;101119.00;5029409;28;20378;-77
2021/09/07 08:17:33;;;;;;;14.13;4.03;;;;;;;29.14;47.55;101116.91;5027728;28;20103;-77
2021/09/07 08:20:00;;;;;;;15.57;3.70;;;;;;;29.06;47.73;101121.88;5029271;28;20046;-78
2021/09/07 08:22:28;;;;;;;12.82;3.60;;;;;;;29.58;46.99;101116.25;5028838;28;20131;-77
2021/09/07 08:24:58;;;;;;;12.82;3.67;;;;;;;29.54;46.64;101123.69;5029215;28;20041;-73
2021/09/07 08:27:25;;;;;;;15.52;3.80;;;;;;;29.59;47.00;101118.00;5035038;28;20041;-77
2021/09/07 08:30:14;;;;;;;16.52;3.88;;;;;;;29.97;46.19;101118.50;5034039;28;20116;-80
2021/09/07 08:32:50;;;;;;;14.65;4.47;;;;;;;29.94;46.19;101114.13;4995154;28;20099;-79
2021/09/07 08:35:17;;;;;;;11.45;4.25;;;;;;;30.12;46.19;101111.28;5032331;28;20052;-79
2021/09/07 08:37:44;;;;;;;15.63;4.25;;;;;;;29.97;45.99;101119.38;5024563;28;20030;-78
2021/09/07 08:40:12;;;;;;;15.68;3.80;;;;;;;30.03;46.08;101116.31;5011569;28;20049;-77
2021/09/07 08:42:40;;;;;;;10.85;4.20;;;;;;;30.01;46.20;101115.50;5013032;28;20064;-78
2021/09/07 08:45:34;;;;;;;10.15;3.90;;;;;;;30.24;45.86;101114.13;4994246;28;20049;-77
2021/09/07 08:48:04;;;;;;;10.50;3.67;;;;;;;30.24;46.05;101103.25;5027239;28;20042;-77
2021/09/07 08:50:32;;;;;;;13.00;3.80;;;;;;;30.42;45.94;101113.00;5012218;28;20046;-77
2021/09/07 08:53:01;;;;;;;19.35;3.90;;;;;;;30.45;45.25;101110.09;5017055;28;20051;-77
2021/09/07 08:55:32;;;;;;;12.68;3.40;;;;;;;30.24;45.68;101107.81;5030772;28;20343;-76
2021/09/07 08:57:59;;;;;;;15.57;3.83;;;;;;;30.43;45.43;101094.81;5032273;28;20037;-77
2021/09/07 09:00:28;;;;;;;11.75;3.40;;;;;;;30.51;45.25;101097.09;5032375;28;20042;-77
2021/09/07 09:03:15;;;;;;;12.10;3.53;;;;;;;30.40;45.10;101086.81;5030498;28;20242;-78
2021/09/07 09:05:44;;;;;;;16.02;3.95;;;;;;;30.14;44.98;101092.97;5031523;28;20029;-77
2021/09/07 09:08:13;;;;;;;12.50;3.72;;;;;;;30.13;45.11;101093.97;5033932;28;20401;-78
2021/09/07 09:10:41;;;;;;;13.43;3.70;;;;;;;30.27;44.89;101096.69;5033748;28;20510;-78
2021/09/07 09:13:23;;;;;;;12.15;4.25;;;;;;;30.17;44.99;101092.81;5007847;28;20056;-76
2021/09/07 09:16:03;;;;;;;13.15;3.90;;;;;;;30.22;44.86;101094.28;5018821;28;20103;-77
2021/09/07 09:18:37;;;;;;;15.15;4.00;;;;;;;30.15;44.75;101089.28;5007794;28;20046;-77
2021/09/07 09:21:25;;;;;;;15.07;3.90;;;;;;;30.09;44.83;101087.81;5031922;28;20514;-76
2021/09/07 09:24:16;;;;;;;14.68;3.83;;;;;;;29.98;44.79;101095.75;5023197;28;20594;-76
2021/09/07 09:26:57;;;;;;;16.85;3.88;;;;;;;29.89;45.10;101094.41;5031821;28;20069;-76
2021/09/07 09:29:43;;;;;;;16.95;3.97;;;;;;;29.84;45.83;101087.50;5005524;28;20111;-76
2021/09/07 09:32:29;;;;;;;12.45;3.92;;;;;;;30.03;45.93;101089.06;5028812;28;20045;-77
2021/09/07 09:35:06;;;;;;;11.52;3.53;;;;;;;30.21;45.30;101097.06;5033587;28;20084;-76
2021/09/07 09:37:53;;;;;;;17.13;3.65;;;;;;;30.16;45.91;101091.91;5029976;28;20120;-77
2021/09/07 09:40:40;;;;;;;;;;;;;;;30.29;45.80;101092.94;5019811;28;20545;-77
2021/09/07 09:43:36;;;;;;;15.70;4.47;;;;;;;30.32;45.46;101097.31;5032380;28;19921;-77
2021/09/07 09:46:25;;;;;;;17.15;4.40;;;;;;;30.57;45.15;101092.13;5030545;28;20064;-78
2021/09/07 09:48:54;;;;;;;12.77;3.35;;;;;;;30.88;44.79;101086.50;5032119;28;20040;-76
2021/09/07 09:51:24;;;;;;;15.75;3.67;;;;;;;31.09;44.43;101087.00;5031703;28;20042;-77
2021/09/07 09:54:10;;;;;;;14.18;3.95;;;;;;;30.75;44.69;101085.53;5031133;28;20139;-76
2021/09/07 09:56:58;;;;;;;13.90;3.92;;;;;;;30.68;44.47;101091.47;5030398;28;20052;-77
2021/09/07 09:59:33;;;;;;;14.63;3.85;;;;;;;30.78;44.37;101089.91;5012715;28;20052;-78
2021/09/07 10:02:19;;;;;;;17.90;4.38;;;;;;;30.72;44.74;101080.25;5029496;28;20044;-78
2021/09/07 10:05:07;;;;;;;13.60;3.60;;;;;;;30.91;44.15;101074.53;4976404;28;20512;-78
2021/09/07 10:07:35;;;;;;;16.15;3.90;;;;;;;30.83;44.30;101085.03;5031516;28;20037;-76
2021/09/07 10:10:06;;;;;;;12.93;3.30;;;;;;;30.85;43.88;101083.09;5030389;28;20088;-76
2021/09/07 10:12:37;;;;;;;12.27;3.67;;;;;;;30.63;44.56;101082.69;5024478;28;20040;-77
2021/09/07 10:15:17;;;;;;;13.85;3.88;;;;;;;30.47;44.48;101089.06;5031356;28;20567;-79
2021/09/07 10:25:06;;;;;;;14.57;3.65;;;;;;;30.56;44.65;101098.56;5007107;28;20053;-76
2021/09/07 10:28:05;;;;;;;11.45;3.70;;;;;;;30.73;43.73;101090.19;5009923;28;20042;-78
2021/09/07 10:31:03;;;;;;;19.75;4.13;;;;;;;31.00;43.43;101095.75;5011262;28;20493;-77
2021/09/07 10:33:42;;;;;;;12.05;3.65;;;;;;;30.66;43.38;101096.13;4931119;29;20040;-77
2021/09/07 10:36:15;;;;;;;12.65;3.88;;;;;;;30.64;43.81;101084.47;4999423;28;20045;-78
2021/09/07 10:38:45;;;;;;;12.02;3.42;;;;;;;30.83;43.50;101083.19;5011477;28;20053;-77
2021/09/07 10:41:44;;;;;;;12.07;3.75;;;;;;;30.65;43.56;101083.50;5028742;28;20049;-76
2021/09/07 10:44:28;;;;;;;14.10;4.78;;;;;;;30.57;44.04;101086.69;5023944;28;20545;-75
2021/09/07 10:47:08;;;;;;;19.00;4.72;;;;;;;30.66;43.85;101088.81;5020823;28;20040;-75
2021/09/07 10:49:46;;;;;;;11.50;3.40;;;;;;;30.71;44.18;101083.97;5025671;28;20111;-76
2021/09/07 10:52:23;;;;;;;13.07;3.55;;;;;;;30.72;44.03;101087.59;5027668;28;20034;-76
2021/09/07 10:55:17;;;;;;;15.55;4.10;;;;;;;30.56;44.33;101081.31;5016613;28;20056;-77
2021/09/07 10:57:56;;;;;;;12.43;3.45;;;;;;;30.46;44.35;101075.53;5026362;28;20049;-80
2021/09/07 11:00:40;;;;;;;13.43;4.63;;;;;;;30.49;44.33;101079.00;5027770;28;20052;-77
2021/09/07 11:03:10;;;;;;;15.38;4.15;;;;;;;30.78;43.85;101089.91;5015923;28;20053;-78
2021/09/07 11:05:49;;;;;;;10.40;3.47;;;;;;;31.03;43.14;101084.66;5025936;28;20060;-76
2021/09/07 11:08:19;;;;;;;16.95;3.78;;;;;;;31.18;43.22;101085.50;5027660;28;20045;-77
2021/09/07 11:10:51;;;;;;;14.18;3.72;;;;;;;31.28;43.31;101081.22;5026495;28;20509;-77
2021/09/07 11:13:25;;;;;;;12.77;3.53;;;;;;;31.31;42.27;101082.91;5014600;28;20086;-78
2021/09/07 11:15:54;;;;;;;12.75;4.30;;;;;;;31.10;42.52;101087.88;5027186;28;20045;-78
2021/09/07 11:18:27;;;;;;;16.70;3.60;;;;;;;30.91;43.12;101084.56;5026844;28;20034;-78
2021/09/07 11:20:56;;;;;;;11.90;3.90;;;;;;;31.01;43.02;101093.91;5020190;28;20045;-79
2021/09/07 11:23:25;;;;;;;16.08;4.05;;;;;;;31.16;43.13;101079.31;5026856;28;20044;-78
2021/09/07 11:26:00;;;;;;;10.27;3.22;;;;;;;31.58;42.63;101086.50;5015610;28;20120;-79
2021/09/07 11:28:29;;;;;;;;;;;;;;;31.85;42.02;101090.13;5009792;28;20258;-80
2021/09/07 11:30:57;;;;;;;15.10;3.83;;;;;;;32.14;41.72;101096.38;5018112;28;19921;-80
2021/09/07 11:33:27;;;;;;;13.90;3.83;;;;;;;32.35;41.48;101088.56;5017668;28;20576;-80
2021/09/07 11:35:56;;;;;;;13.27;3.72;;;;;;;32.08;42.10;101096.78;5023778;28;20030;-80
2021/09/07 11:38:26;;;;;;;13.13;4.05;;;;;;;31.80;42.26;101095.03;5017734;28;20046;-81
2021/09/07 11:40:55;;;;;;;11.35;3.60;;;;;;;31.61;42.35;101092.69;5012126;28;20035;-79
2021/09/07 11:43:32;;;;;;;12.00;3.42;;;;;;;31.45;42.40;101091.91;5026528;28;20413;-79
2021/09/07 11:46:10;;;;;;;14.32;3.88;;;;;;;31.46;42.38;101090.03;5013542;28;20048;-79